Terminal Aerodrome Forecast
Issued by NWS

Home | Current Version | Previous Version | Text Only | Print | Product List | Glossary On
Versions: 1 2 3 4 5 6 7 8 9 10 11 12 13 14
792
FTPA31 PHFO 062334
TAFHJH
TAF
PHJH 062334Z 0700/0724 24006KT P6SM VCSH SCT025 BKN045
     FM070400 31010KT P6SM VCSH SCT020 BKN040
     FM071300 36015KT 5SM SHRA BKN013 OVC035
     FM071500 01018G25KT P6SM VCSH SCT025 BKN050
      AMD NOT SKED=

USA.gov is the U.S. government's official web portal to all federal, state and local government web resources and services.